sensor_id;sensor_type;location;lat;lon;timestamp;P1;durP1;ratioP1;P2;durP2;ratioP2
84958;SDS011;75256;48.062;11.662;2024-01-30T00:01:50;5.05;;;3.40;;
84958;SDS011;75256;48.062;11.662;2024-01-30T00:04:15;6.35;;;3.28;;
84958;SDS011;75256;48.062;11.662;2024-01-30T00:06:41;5.85;;;3.30;;
84958;SDS011;75256;48.062;11.662;2024-01-30T00:09:07;7.65;;;2.88;;
84958;SDS011;75256;48.062;11.662;2024-01-30T00:11:34;5.35;;;2.88;;
84958;SDS011;75256;48.062;11.662;2024-01-30T00:14:02;5.70;;;2.60;;
84958;SDS011;75256;48.062;11.662;2024-01-30T00:16:30;4.80;;;2.83;;
84958;SDS011;75256;48.062;11.662;2024-01-30T00:18:56;4.32;;;2.70;;
84958;SDS011;75256;48.062;11.662;2024-01-30T00:21:21;4.43;;;2.97;;
84958;SDS011;75256;48.062;11.662;2024-01-30T00:23:47;5.20;;;3.25;;
84958;SDS011;75256;48.062;11.662;2024-01-30T00:26:13;4.68;;;2.70;;
84958;SDS011;75256;48.062;11.662;2024-01-30T00:28:42;7.80;;;3.03;;
84958;SDS011;75256;48.062;11.662;2024-01-30T00:31:08;4.88;;;2.88;;
84958;SDS011;75256;48.062;11.662;2024-01-30T00:33:37;6.10;;;2.92;;
84958;SDS011;75256;48.062;11.662;2024-01-30T00:36:08;5.43;;;2.65;;
84958;SDS011;75256;48.062;11.662;2024-01-30T00:38:34;4.45;;;3.00;;
84958;SDS011;75256;48.062;11.662;2024-01-30T00:41:02;5.40;;;2.88;;
84958;SDS011;75256;48.062;11.662;2024-01-30T00:43:30;4.60;;;2.95;;
84958;SDS011;75256;48.062;11.662;2024-01-30T00:45:58;6.07;;;3.08;;
84958;SDS011;75256;48.062;11.662;2024-01-30T00:48:23;5.57;;;2.88;;
84958;SDS011;75256;48.062;11.662;2024-01-30T00:50:49;4.40;;;2.83;;
84958;SDS011;75256;48.062;11.662;2024-01-30T00:53:14;6.57;;;2.90;;
84958;SDS011;75256;48.062;11.662;2024-01-30T00:55:40;6.20;;;3.20;;
84958;SDS011;75256;48.062;11.662;2024-01-30T00:58:05;4.10;;;2.33;;
84958;SDS011;75256;48.062;11.662;2024-01-30T01:00:31;4.63;;;2.65;;
84958;SDS011;75256;48.062;11.662;2024-01-30T01:02:57;3.90;;;2.30;;
84958;SDS011;75256;48.062;11.662;2024-01-30T01:05:23;3.83;;;2.33;;
84958;SDS011;75256;48.062;11.662;2024-01-30T01:07:48;3.72;;;2.65;;
84958;SDS011;75256;48.062;11.662;2024-01-30T01:10:14;4.90;;;2.55;;
84958;SDS011;75256;48.062;11.662;2024-01-30T01:12:43;5.47;;;2.65;;
84958;SDS011;75256;48.062;11.662;2024-01-30T01:15:13;3.13;;;2.08;;
84958;SDS011;75256;48.062;11.662;2024-01-30T01:17:39;4.60;;;2.53;;
84958;SDS011;75256;48.062;11.662;2024-01-30T01:20:07;3.63;;;2.20;;
84958;SDS011;75256;48.062;11.662;2024-01-30T01:22:33;4.25;;;2.33;;
84958;SDS011;75256;48.062;11.662;2024-01-30T01:25:01;3.85;;;2.42;;
84958;SDS011;75256;48.062;11.662;2024-01-30T01:27:29;6.22;;;2.42;;
84958;SDS011;75256;48.062;11.662;2024-01-30T01:29:54;4.53;;;2.63;;
84958;SDS011;75256;48.062;11.662;2024-01-30T01:32:22;4.82;;;2.33;;
84958;SDS011;75256;48.062;11.662;2024-01-30T01:34:47;3.15;;;2.13;;
84958;SDS011;75256;48.062;11.662;2024-01-30T01:37:13;4.38;;;2.20;;
84958;SDS011;75256;48.062;11.662;2024-01-30T01:39:41;2.97;;;2.10;;
84958;SDS011;75256;48.062;11.662;2024-01-30T01:42:08;3.45;;;2.13;;
84958;SDS011;75256;48.062;11.662;2024-01-30T01:44:34;4.85;;;2.50;;
84958;SDS011;75256;48.062;11.662;2024-01-30T01:47:00;5.53;;;2.13;;
84958;SDS011;75256;48.062;11.662;2024-01-30T01:49:25;4.40;;;1.83;;
84958;SDS011;75256;48.062;11.662;2024-01-30T01:51:53;4.88;;;2.67;;
84958;SDS011;75256;48.062;11.662;2024-01-30T01:54:19;3.55;;;2.35;;
84958;SDS011;75256;48.062;11.662;2024-01-30T01:56:45;5.65;;;2.40;;
84958;SDS011;75256;48.062;11.662;2024-01-30T01:59:10;5.10;;;2.25;;
84958;SDS011;75256;48.062;11.662;2024-01-30T02:01:38;3.63;;;1.90;;
84958;SDS011;75256;48.062;11.662;2024-01-30T02:04:07;4.20;;;1.73;;
84958;SDS011;75256;48.062;11.662;2024-01-30T02:06:33;3.28;;;2.10;;
84958;SDS011;75256;48.062;11.662;2024-01-30T02:08:59;8.15;;;2.33;;
84958;SDS011;75256;48.062;11.662;2024-01-30T02:11:24;3.58;;;2.47;;
84958;SDS011;75256;48.062;11.662;2024-01-30T02:13:50;4.53;;;2.63;;
84958;SDS011;75256;48.062;11.662;2024-01-30T02:16:17;4.72;;;2.25;;
84958;SDS011;75256;48.062;11.662;2024-01-30T02:18:43;4.00;;;2.30;;
84958;SDS011;75256;48.062;11.662;2024-01-30T02:21:12;4.60;;;2.13;;
84958;SDS011;75256;48.062;11.662;2024-01-30T02:23:37;3.45;;;2.00;;
84958;SDS011;75256;48.062;11.662;2024-01-30T02:26:09;4.40;;;2.28;;
84958;SDS011;75256;48.062;11.662;2024-01-30T02:28:37;4.57;;;2.15;;
84958;SDS011;75256;48.062;11.662;2024-01-30T02:31:05;4.40;;;2.17;;
84958;SDS011;75256;48.062;11.662;2024-01-30T02:33:32;5.10;;;2.13;;
84958;SDS011;75256;48.062;11.662;2024-01-30T02:35:58;3.55;;;1.70;;
84958;SDS011;75256;48.062;11.662;2024-01-30T02:38:23;4.47;;;2.15;;
84958;SDS011;75256;48.062;11.662;2024-01-30T02:40:51;3.20;;;1.80;;
84958;SDS011;75256;48.062;11.662;2024-01-30T02:43:17;3.65;;;2.00;;
84958;SDS011;75256;48.062;11.662;2024-01-30T02:45:47;3.33;;;1.83;;
84958;SDS011;75256;48.062;11.662;2024-01-30T02:48:12;3.83;;;2.20;;
84958;SDS011;75256;48.062;11.662;2024-01-30T02:50:40;3.53;;;2.10;;
84958;SDS011;75256;48.062;11.662;2024-01-30T02:53:06;3.00;;;1.67;;
84958;SDS011;75256;48.062;11.662;2024-01-30T02:55:31;4.43;;;2.10;;
84958;SDS011;75256;48.062;11.662;2024-01-30T02:57:58;4.57;;;1.75;;
84958;SDS011;75256;48.062;11.662;2024-01-30T03:00:26;4.20;;;1.80;;
84958;SDS011;75256;48.062;11.662;2024-01-30T03:02:52;2.63;;;1.77;;
84958;SDS011;75256;48.062;11.662;2024-01-30T03:05:17;3.15;;;1.98;;
84958;SDS011;75256;48.062;11.662;2024-01-30T03:07:42;2.92;;;1.85;;
84958;SDS011;75256;48.062;11.662;2024-01-30T03:10:08;3.97;;;1.92;;
84958;SDS011;75256;48.062;11.662;2024-01-30T03:12:33;4.25;;;1.65;;
84958;SDS011;75256;48.062;11.662;2024-01-30T03:14:59;3.40;;;1.55;;
84958;SDS011;75256;48.062;11.662;2024-01-30T03:17:24;3.97;;;1.63;;
84958;SDS011;75256;48.062;11.662;2024-01-30T03:19:52;4.13;;;1.83;;
84958;SDS011;75256;48.062;11.662;2024-01-30T03:22:20;2.90;;;1.42;;
84958;SDS011;75256;48.062;11.662;2024-01-30T03:24:45;2.55;;;1.52;;
84958;SDS011;75256;48.062;11.662;2024-01-30T03:27:10;2.95;;;1.45;;
84958;SDS011;75256;48.062;11.662;2024-01-30T03:29:38;2.78;;;1.58;;
84958;SDS011;75256;48.062;11.662;2024-01-30T03:32:06;3.00;;;1.63;;
84958;SDS011;75256;48.062;11.662;2024-01-30T03:34:31;4.45;;;1.67;;
84958;SDS011;75256;48.062;11.662;2024-01-30T03:36:57;2.42;;;1.40;;
84958;SDS011;75256;48.062;11.662;2024-01-30T03:39:22;2.88;;;1.20;;
84958;SDS011;75256;48.062;11.662;2024-01-30T03:41:50;3.75;;;1.77;;
84958;SDS011;75256;48.062;11.662;2024-01-30T03:44:16;3.28;;;1.63;;
84958;SDS011;75256;48.062;11.662;2024-01-30T03:46:41;2.92;;;1.30;;
84958;SDS011;75256;48.062;11.662;2024-01-30T03:49:06;3.15;;;1.65;;
84958;SDS011;75256;48.062;11.662;2024-01-30T03:51:32;4.15;;;1.88;;
84958;SDS011;75256;48.062;11.662;2024-01-30T03:53:57;4.50;;;1.77;;
84958;SDS011;75256;48.062;11.662;2024-01-30T03:56:23;2.50;;;1.45;;
84958;SDS011;75256;48.062;11.662;2024-01-30T03:58:50;3.67;;;1.30;;
84958;SDS011;75256;48.062;11.662;2024-01-30T04:01:18;3.17;;;1.50;;
84958;SDS011;75256;48.062;11.662;2024-01-30T04:03:44;3.28;;;1.58;;
84958;SDS011;75256;48.062;11.662;2024-01-30T04:06:12;2.08;;;1.33;;
84958;SDS011;75256;48.062;11.662;2024-01-30T04:08:37;2.80;;;1.67;;
84958;SDS011;75256;48.062;11.662;2024-01-30T04:11:03;2.95;;;1.40;;
84958;SDS011;75256;48.062;11.662;2024-01-30T04:13:33;2.20;;;1.30;;
84958;SDS011;75256;48.062;11.662;2024-01-30T04:15:59;2.67;;;1.30;;
84958;SDS011;75256;48.062;11.662;2024-01-30T04:18:26;2.75;;;1.13;;
84958;SDS011;75256;48.062;11.662;2024-01-30T04:20:54;2.83;;;1.38;;
84958;SDS011;75256;48.062;11.662;2024-01-30T04:23:24;2.60;;;1.10;;
84958;SDS011;75256;48.062;11.662;2024-01-30T04:25:49;2.38;;;1.35;;
84958;SDS011;75256;48.062;11.662;2024-01-30T04:28:19;2.50;;;1.38;;
84958;SDS011;75256;48.062;11.662;2024-01-30T04:30:45;2.15;;;1.23;;
84958;SDS011;75256;48.062;11.662;2024-01-30T04:33:15;1.40;;;1.10;;
84958;SDS011;75256;48.062;11.662;2024-01-30T04:35:43;3.35;;;1.45;;
84958;SDS011;75256;48.062;11.662;2024-01-30T04:38:08;2.63;;;1.20;;
84958;SDS011;75256;48.062;11.662;2024-01-30T04:40:34;1.63;;;1.30;;
84958;SDS011;75256;48.062;11.662;2024-01-30T04:43:01;3.35;;;1.13;;
84958;SDS011;75256;48.062;11.662;2024-01-30T04:45:27;1.98;;;1.15;;
84958;SDS011;75256;48.062;11.662;2024-01-30T04:47:55;2.28;;;1.30;;
84958;SDS011;75256;48.062;11.662;2024-01-30T04:50:20;3.63;;;1.42;;
84958;SDS011;75256;48.062;11.662;2024-01-30T04:52:45;3.33;;;1.50;;
84958;SDS011;75256;48.062;11.662;2024-01-30T04:55:11;2.08;;;1.30;;
84958;SDS011;75256;48.062;11.662;2024-01-30T04:57:36;3.42;;;1.40;;
84958;SDS011;75256;48.062;11.662;2024-01-30T05:00:06;3.78;;;1.50;;
84958;SDS011;75256;48.062;11.662;2024-01-30T05:02:37;3.08;;;1.30;;
84958;SDS011;75256;48.062;11.662;2024-01-30T05:05:05;2.65;;;1.38;;
84958;SDS011;75256;48.062;11.662;2024-01-30T05:07:33;3.17;;;1.70;;
84958;SDS011;75256;48.062;11.662;2024-01-30T05:09:59;4.55;;;2.80;;
84958;SDS011;75256;48.062;11.662;2024-01-30T05:12:27;4.88;;;3.47;;
84958;SDS011;75256;48.062;11.662;2024-01-30T05:14:54;4.80;;;3.45;;
84958;SDS011;75256;48.062;11.662;2024-01-30T05:17:20;3.80;;;2.97;;
84958;SDS011;75256;48.062;11.662;2024-01-30T05:19:45;4.07;;;3.10;;
84958;SDS011;75256;48.062;11.662;2024-01-30T05:22:13;4.60;;;2.42;;
84958;SDS011;75256;48.062;11.662;2024-01-30T05:24:40;5.93;;;2.78;;
84958;SDS011;75256;48.062;11.662;2024-01-30T05:27:09;5.47;;;3.58;;
84958;SDS011;75256;48.062;11.662;2024-01-30T05:29:35;6.20;;;4.00;;
84958;SDS011;75256;48.062;11.662;2024-01-30T05:32:00;7.97;;;4.88;;
84958;SDS011;75256;48.062;11.662;2024-01-30T05:34:26;7.93;;;4.70;;
84958;SDS011;75256;48.062;11.662;2024-01-30T05:36:51;6.88;;;4.45;;
84958;SDS011;75256;48.062;11.662;2024-01-30T05:39:17;6.15;;;4.22;;
84958;SDS011;75256;48.062;11.662;2024-01-30T05:41:42;7.25;;;4.15;;
84958;SDS011;75256;48.062;11.662;2024-01-30T05:44:09;6.38;;;3.88;;
84958;SDS011;75256;48.062;11.662;2024-01-30T05:46:40;6.53;;;3.25;;
84958;SDS011;75256;48.062;11.662;2024-01-30T05:49:05;3.95;;;3.05;;
84958;SDS011;75256;48.062;11.662;2024-01-30T05:51:31;3.40;;;2.63;;
84958;SDS011;75256;48.062;11.662;2024-01-30T05:53:56;3.92;;;2.67;;
84958;SDS011;75256;48.062;11.662;2024-01-30T05:56:22;4.13;;;2.10;;
84958;SDS011;75256;48.062;11.662;2024-01-30T05:58:49;3.17;;;1.88;;
84958;SDS011;75256;48.062;11.662;2024-01-30T06:01:17;4.10;;;1.70;;
84958;SDS011;75256;48.062;11.662;2024-01-30T06:03:43;4.05;;;1.67;;
84958;SDS011;75256;48.062;11.662;2024-01-30T06:06:11;6.35;;;3.25;;
84958;SDS011;75256;48.062;11.662;2024-01-30T06:08:38;6.20;;;3.40;;
84958;SDS011;75256;48.062;11.662;2024-01-30T06:11:04;5.03;;;3.25;;
84958;SDS011;75256;48.062;11.662;2024-01-30T06:13:36;5.25;;;2.60;;
84958;SDS011;75256;48.062;11.662;2024-01-30T06:16:02;8.63;;;3.90;;
84958;SDS011;75256;48.062;11.662;2024-01-30T06:18:30;26.83;;;10.90;;
84958;SDS011;75256;48.062;11.662;2024-01-30T06:20:56;8.60;;;3.58;;
84958;SDS011;75256;48.062;11.662;2024-01-30T06:23:21;17.77;;;6.53;;
84958;SDS011;75256;48.062;11.662;2024-01-30T06:25:49;16.15;;;7.38;;
84958;SDS011;75256;48.062;11.662;2024-01-30T06:28:17;12.35;;;5.60;;
84958;SDS011;75256;48.062;11.662;2024-01-30T06:30:42;12.38;;;4.40;;
84958;SDS011;75256;48.062;11.662;2024-01-30T06:33:08;9.02;;;3.63;;
84958;SDS011;75256;48.062;11.662;2024-01-30T06:35:36;8.40;;;3.40;;
84958;SDS011;75256;48.062;11.662;2024-01-30T06:38:04;6.15;;;2.75;;
84958;SDS011;75256;48.062;11.662;2024-01-30T06:40:30;9.68;;;3.95;;
84958;SDS011;75256;48.062;11.662;2024-01-30T06:42:57;5.60;;;2.65;;
84958;SDS011;75256;48.062;11.662;2024-01-30T06:45:23;4.45;;;2.25;;
84958;SDS011;75256;48.062;11.662;2024-01-30T06:47:48;5.45;;;2.40;;
84958;SDS011;75256;48.062;11.662;2024-01-30T06:50:14;4.47;;;1.88;;
84958;SDS011;75256;48.062;11.662;2024-01-30T06:52:41;3.92;;;1.55;;
84958;SDS011;75256;48.062;11.662;2024-01-30T06:55:07;4.20;;;1.55;;
84958;SDS011;75256;48.062;11.662;2024-01-30T06:57:32;4.35;;;1.80;;
84958;SDS011;75256;48.062;11.662;2024-01-30T06:59:58;5.18;;;1.70;;
84958;SDS011;75256;48.062;11.662;2024-01-30T07:02:23;3.90;;;1.95;;
84958;SDS011;75256;48.062;11.662;2024-01-30T07:04:49;3.78;;;1.00;;
84958;SDS011;75256;48.062;11.662;2024-01-30T07:07:16;2.63;;;1.38;;
84958;SDS011;75256;48.062;11.662;2024-01-30T07:09:42;3.55;;;1.75;;
84958;SDS011;75256;48.062;11.662;2024-01-30T07:12:07;2.88;;;1.30;;
84958;SDS011;75256;48.062;11.662;2024-01-30T07:14:33;5.65;;;1.70;;
84958;SDS011;75256;48.062;11.662;2024-01-30T07:16:59;2.42;;;1.23;;
84958;SDS011;75256;48.062;11.662;2024-01-30T07:19:24;3.88;;;1.23;;
84958;SDS011;75256;48.062;11.662;2024-01-30T07:21:50;3.85;;;2.40;;
84958;SDS011;75256;48.062;11.662;2024-01-30T07:24:15;3.95;;;1.50;;
84958;SDS011;75256;48.062;11.662;2024-01-30T07:26:40;3.97;;;1.75;;
84958;SDS011;75256;48.062;11.662;2024-01-30T07:29:06;6.93;;;1.92;;
84958;SDS011;75256;48.062;11.662;2024-01-30T07:31:33;3.40;;;1.55;;
84958;SDS011;75256;48.062;11.662;2024-01-30T07:33:59;4.25;;;1.73;;
84958;SDS011;75256;48.062;11.662;2024-01-30T07:36:24;2.40;;;1.35;;
84958;SDS011;75256;48.062;11.662;2024-01-30T07:38:52;3.35;;;1.35;;
84958;SDS011;75256;48.062;11.662;2024-01-30T07:41:19;3.83;;;1.45;;
84958;SDS011;75256;48.062;11.662;2024-01-30T07:43:44;5.72;;;1.40;;
84958;SDS011;75256;48.062;11.662;2024-01-30T07:46:12;2.92;;;1.33;;
84958;SDS011;75256;48.062;11.662;2024-01-30T07:48:38;2.95;;;1.13;;
84958;SDS011;75256;48.062;11.662;2024-01-30T07:51:03;4.47;;;1.95;;
84958;SDS011;75256;48.062;11.662;2024-01-30T07:53:29;3.53;;;1.50;;
84958;SDS011;75256;48.062;11.662;2024-01-30T07:55:56;2.70;;;1.35;;
84958;SDS011;75256;48.062;11.662;2024-01-30T07:58:22;2.58;;;1.33;;
84958;SDS011;75256;48.062;11.662;2024-01-30T08:00:48;3.00;;;1.40;;
84958;SDS011;75256;48.062;11.662;2024-01-30T08:03:14;2.22;;;1.08;;
84958;SDS011;75256;48.062;11.662;2024-01-30T08:05:41;3.58;;;1.00;;
84958;SDS011;75256;48.062;11.662;2024-01-30T08:08:07;4.90;;;1.38;;
84958;SDS011;75256;48.062;11.662;2024-01-30T08:10:37;8.13;;;1.50;;
84958;SDS011;75256;48.062;11.662;2024-01-30T08:13:02;3.78;;;1.20;;
84958;SDS011;75256;48.062;11.662;2024-01-30T08:15:28;4.35;;;1.60;;
84958;SDS011;75256;48.062;11.662;2024-01-30T08:17:53;3.15;;;1.23;;
84958;SDS011;75256;48.062;11.662;2024-01-30T08:20:23;4.35;;;1.48;;
84958;SDS011;75256;48.062;11.662;2024-01-30T08:22:51;3.33;;;1.42;;
84958;SDS011;75256;48.062;11.662;2024-01-30T08:25:17;2.30;;;1.10;;
84958;SDS011;75256;48.062;11.662;2024-01-30T08:27:45;2.08;;;1.17;;
84958;SDS011;75256;48.062;11.662;2024-01-30T08:30:10;2.85;;;0.80;;
84958;SDS011;75256;48.062;11.662;2024-01-30T08:32:38;2.13;;;0.93;;
84958;SDS011;75256;48.062;11.662;2024-01-30T08:35:04;2.15;;;1.33;;
84958;SDS011;75256;48.062;11.662;2024-01-30T08:37:31;2.30;;;1.02;;
84958;SDS011;75256;48.062;11.662;2024-01-30T08:39:57;3.10;;;1.27;;
84958;SDS011;75256;48.062;11.662;2024-01-30T08:42:22;4.43;;;1.10;;
84958;SDS011;75256;48.062;11.662;2024-01-30T08:44:53;3.08;;;1.00;;
84958;SDS011;75256;48.062;11.662;2024-01-30T08:47:21;2.80;;;1.05;;
84958;SDS011;75256;48.062;11.662;2024-01-30T08:49:46;3.78;;;1.25;;
84958;SDS011;75256;48.062;11.662;2024-01-30T08:52:14;2.83;;;0.80;;
84958;SDS011;75256;48.062;11.662;2024-01-30T08:54:39;1.80;;;0.75;;
84958;SDS011;75256;48.062;11.662;2024-01-30T08:57:05;3.10;;;0.90;;
84958;SDS011;75256;48.062;11.662;2024-01-30T08:59:30;1.50;;;0.47;;
84958;SDS011;75256;48.062;11.662;2024-01-30T09:01:56;1.33;;;0.55;;
84958;SDS011;75256;48.062;11.662;2024-01-30T09:04:25;2.08;;;1.08;;
84958;SDS011;75256;48.062;11.662;2024-01-30T09:06:50;1.67;;;0.70;;
84958;SDS011;75256;48.062;11.662;2024-01-30T09:09:16;1.58;;;0.88;;
84958;SDS011;75256;48.062;11.662;2024-01-30T09:11:44;1.02;;;0.52;;
84958;SDS011;75256;48.062;11.662;2024-01-30T09:14:10;1.38;;;0.50;;
84958;SDS011;75256;48.062;11.662;2024-01-30T09:16:35;1.13;;;0.68;;
84958;SDS011;75256;48.062;11.662;2024-01-30T09:19:03;1.90;;;0.50;;
84958;SDS011;75256;48.062;11.662;2024-01-30T09:21:29;1.10;;;0.40;;
84958;SDS011;75256;48.062;11.662;2024-01-30T09:23:54;1.55;;;0.45;;
84958;SDS011;75256;48.062;11.662;2024-01-30T09:26:20;0.95;;;0.30;;
84958;SDS011;75256;48.062;11.662;2024-01-30T09:28:45;2.13;;;0.47;;
84958;SDS011;75256;48.062;11.662;2024-01-30T09:31:11;1.63;;;0.50;;
84958;SDS011;75256;48.062;11.662;2024-01-30T09:33:37;0.70;;;0.30;;
84958;SDS011;75256;48.062;11.662;2024-01-30T09:36:05;1.23;;;0.43;;
84958;SDS011;75256;48.062;11.662;2024-01-30T09:38:31;0.90;;;0.47;;
84958;SDS011;75256;48.062;11.662;2024-01-30T09:40:56;1.25;;;0.60;;
84958;SDS011;75256;48.062;11.662;2024-01-30T09:43:25;2.30;;;1.17;;
84958;SDS011;75256;48.062;11.662;2024-01-30T09:45:52;0.63;;;0.43;;
84958;SDS011;75256;48.062;11.662;2024-01-30T09:48:18;1.60;;;0.50;;
84958;SDS011;75256;48.062;11.662;2024-01-30T09:50:44;3.47;;;0.50;;
84958;SDS011;75256;48.062;11.662;2024-01-30T09:53:09;2.00;;;0.43;;
84958;SDS011;75256;48.062;11.662;2024-01-30T09:55:36;1.73;;;0.77;;
84958;SDS011;75256;48.062;11.662;2024-01-30T09:58:01;2.10;;;0.45;;
84958;SDS011;75256;48.062;11.662;2024-01-30T10:00:27;1.23;;;0.55;;
84958;SDS011;75256;48.062;11.662;2024-01-30T10:02:53;2.30;;;1.02;;
84958;SDS011;75256;48.062;11.662;2024-01-30T10:05:19;1.60;;;0.52;;
84958;SDS011;75256;48.062;11.662;2024-01-30T10:07:55;2.08;;;0.73;;
84958;SDS011;75256;48.062;11.662;2024-01-30T10:10:22;1.52;;;0.70;;
84958;SDS011;75256;48.062;11.662;2024-01-30T10:12:48;2.05;;;0.77;;
84958;SDS011;75256;48.062;11.662;2024-01-30T10:15:16;1.92;;;0.60;;
84958;SDS011;75256;48.062;11.662;2024-01-30T10:17:43;3.08;;;0.93;;
84958;SDS011;75256;48.062;11.662;2024-01-30T10:20:12;2.40;;;0.70;;
84958;SDS011;75256;48.062;11.662;2024-01-30T10:22:37;2.38;;;0.73;;
84958;SDS011;75256;48.062;11.662;2024-01-30T10:25:04;1.33;;;0.38;;
84958;SDS011;75256;48.062;11.662;2024-01-30T10:27:30;0.82;;;0.30;;
84958;SDS011;75256;48.062;11.662;2024-01-30T10:29:55;1.65;;;0.60;;
84958;SDS011;75256;48.062;11.662;2024-01-30T10:32:21;1.52;;;0.60;;
84958;SDS011;75256;48.062;11.662;2024-01-30T10:34:54;1.65;;;0.50;;
84958;SDS011;75256;48.062;11.662;2024-01-30T10:37:25;1.15;;;0.35;;
84958;SDS011;75256;48.062;11.662;2024-01-30T10:39:53;2.55;;;0.70;;
84958;SDS011;75256;48.062;11.662;2024-01-30T10:42:23;1.65;;;0.63;;
84958;SDS011;75256;48.062;11.662;2024-01-30T10:47:25;1.00;;;0.52;;
84958;SDS011;75256;48.062;11.662;2024-01-30T10:49:52;1.70;;;0.40;;
84958;SDS011;75256;48.062;11.662;2024-01-30T10:52:22;1.20;;;0.43;;
84958;SDS011;75256;48.062;11.662;2024-01-30T10:54:53;3.35;;;0.88;;
84958;SDS011;75256;48.062;11.662;2024-01-30T10:57:19;2.85;;;0.80;;
84958;SDS011;75256;48.062;11.662;2024-01-30T10:59:58;1.67;;;1.15;;
84958;SDS011;75256;48.062;11.662;2024-01-30T11:02:25;2.13;;;0.88;;
84958;SDS011;75256;48.062;11.662;2024-01-30T11:04:56;1.20;;;0.40;;
84958;SDS011;75256;48.062;11.662;2024-01-30T11:07:26;2.33;;;0.90;;
84958;SDS011;75256;48.062;11.662;2024-01-30T11:12:22;1.10;;;0.43;;
84958;SDS011;75256;48.062;11.662;2024-01-30T11:14:48;2.53;;;0.32;;
84958;SDS011;75256;48.062;11.662;2024-01-30T11:17:19;0.82;;;0.30;;
84958;SDS011;75256;48.062;11.662;2024-01-30T11:19:48;2.25;;;0.65;;
84958;SDS011;75256;48.062;11.662;2024-01-30T11:22:19;4.13;;;0.88;;
84958;SDS011;75256;48.062;11.662;2024-01-30T11:24:45;1.52;;;0.50;;
84958;SDS011;75256;48.062;11.662;2024-01-30T11:27:12;1.15;;;0.55;;
84958;SDS011;75256;48.062;11.662;2024-01-30T11:29:40;5.15;;;1.30;;
84958;SDS011;75256;48.062;11.662;2024-01-30T11:32:06;1.55;;;0.82;;
84958;SDS011;75256;48.062;11.662;2024-01-30T11:34:32;1.40;;;0.60;;
84958;SDS011;75256;48.062;11.662;2024-01-30T11:37:02;2.72;;;0.50;;
84958;SDS011;75256;48.062;11.662;2024-01-30T11:39:34;1.00;;;0.35;;
84958;SDS011;75256;48.062;11.662;2024-01-30T11:42:03;2.05;;;0.77;;
84958;SDS011;75256;48.062;11.662;2024-01-30T11:44:32;3.28;;;0.68;;
84958;SDS011;75256;48.062;11.662;2024-01-30T11:46:57;1.10;;;0.40;;
84958;SDS011;75256;48.062;11.662;2024-01-30T11:49:23;0.90;;;0.35;;
84958;SDS011;75256;48.062;11.662;2024-01-30T11:51:50;0.73;;;0.35;;
84958;SDS011;75256;48.062;11.662;2024-01-30T11:54:18;0.95;;;0.22;;
84958;SDS011;75256;48.062;11.662;2024-01-30T11:56:44;1.45;;;0.60;;
84958;SDS011;75256;48.062;11.662;2024-01-30T11:59:09;1.55;;;0.40;;
84958;SDS011;75256;48.062;11.662;2024-01-30T12:01:34;1.67;;;0.35;;
84958;SDS011;75256;48.062;11.662;2024-01-30T12:04:00;2.08;;;0.70;;
84958;SDS011;75256;48.062;11.662;2024-01-30T12:06:25;1.05;;;0.57;;
84958;SDS011;75256;48.062;11.662;2024-01-30T12:08:58;2.95;;;0.95;;
84958;SDS011;75256;48.062;11.662;2024-01-30T12:11:24;2.83;;;0.80;;
84958;SDS011;75256;48.062;11.662;2024-01-30T12:13:51;3.13;;;1.40;;
84958;SDS011;75256;48.062;11.662;2024-01-30T12:16:19;1.73;;;0.70;;
84958;SDS011;75256;48.062;11.662;2024-01-30T12:18:45;2.30;;;0.88;;
84958;SDS011;75256;48.062;11.662;2024-01-30T12:21:11;4.10;;;1.05;;
84958;SDS011;75256;48.062;11.662;2024-01-30T12:23:36;2.20;;;0.80;;
84958;SDS011;75256;48.062;11.662;2024-01-30T12:26:04;2.38;;;1.10;;
84958;SDS011;75256;48.062;11.662;2024-01-30T12:28:34;2.10;;;0.90;;
84958;SDS011;75256;48.062;11.662;2024-01-30T12:31:03;3.15;;;0.80;;
84958;SDS011;75256;48.062;11.662;2024-01-30T12:33:29;2.13;;;1.08;;
84958;SDS011;75256;48.062;11.662;2024-01-30T12:36:00;2.70;;;1.15;;
84958;SDS011;75256;48.062;11.662;2024-01-30T12:38:26;4.13;;;1.20;;
84958;SDS011;75256;48.062;11.662;2024-01-30T12:40:55;4.00;;;0.95;;
84958;SDS011;75256;48.062;11.662;2024-01-30T12:43:23;3.65;;;1.60;;
84958;SDS011;75256;48.062;11.662;2024-01-30T12:45:50;2.70;;;1.25;;
84958;SDS011;75256;48.062;11.662;2024-01-30T12:48:17;1.77;;;1.10;;
84958;SDS011;75256;48.062;11.662;2024-01-30T12:50:43;3.03;;;1.15;;
84958;SDS011;75256;48.062;11.662;2024-01-30T12:53:08;1.85;;;0.88;;
84958;SDS011;75256;48.062;11.662;2024-01-30T12:55:37;3.03;;;0.90;;
84958;SDS011;75256;48.062;11.662;2024-01-30T12:58:03;2.17;;;0.90;;
84958;SDS011;75256;48.062;11.662;2024-01-30T13:00:28;3.38;;;0.93;;
84958;SDS011;75256;48.062;11.662;2024-01-30T13:02:54;2.97;;;1.10;;
84958;SDS011;75256;48.062;11.662;2024-01-30T13:05:26;2.97;;;1.15;;
84958;SDS011;75256;48.062;11.662;2024-01-30T13:07:51;3.63;;;0.82;;
84958;SDS011;75256;48.062;11.662;2024-01-30T13:10:18;4.57;;;1.23;;
84958;SDS011;75256;48.062;11.662;2024-01-30T13:12:43;3.22;;;0.70;;
84958;SDS011;75256;48.062;11.662;2024-01-30T13:15:09;7.13;;;1.67;;
84958;SDS011;75256;48.062;11.662;2024-01-30T13:17:39;2.78;;;1.40;;
84958;SDS011;75256;48.062;11.662;2024-01-30T13:20:07;2.85;;;1.10;;
84958;SDS011;75256;48.062;11.662;2024-01-30T13:22:33;4.10;;;1.20;;
84958;SDS011;75256;48.062;11.662;2024-01-30T13:24:58;4.80;;;1.00;;
84958;SDS011;75256;48.062;11.662;2024-01-30T13:27:24;3.03;;;1.10;;
84958;SDS011;75256;48.062;11.662;2024-01-30T13:29:49;2.00;;;0.73;;
84958;SDS011;75256;48.062;11.662;2024-01-30T13:32:15;2.75;;;1.05;;
84958;SDS011;75256;48.062;11.662;2024-01-30T13:34:40;3.58;;;1.05;;
84958;SDS011;75256;48.062;11.662;2024-01-30T13:37:06;4.38;;;0.85;;
84958;SDS011;75256;48.062;11.662;2024-01-30T13:39:33;4.05;;;0.80;;
84958;SDS011;75256;48.062;11.662;2024-01-30T13:41:59;2.20;;;1.00;;
84958;SDS011;75256;48.062;11.662;2024-01-30T13:44:24;3.17;;;1.02;;
84958;SDS011;75256;48.062;11.662;2024-01-30T13:46:55;2.65;;;0.90;;
84958;SDS011;75256;48.062;11.662;2024-01-30T13:49:20;3.13;;;0.90;;
84958;SDS011;75256;48.062;11.662;2024-01-30T13:51:46;3.70;;;0.98;;
84958;SDS011;75256;48.062;11.662;2024-01-30T13:54:12;2.63;;;1.08;;
84958;SDS011;75256;48.062;11.662;2024-01-30T13:56:37;3.95;;;1.50;;
84958;SDS011;75256;48.062;11.662;2024-01-30T13:59:02;3.17;;;1.02;;
84958;SDS011;75256;48.062;11.662;2024-01-30T14:01:30;6.95;;;1.10;;
84958;SDS011;75256;48.062;11.662;2024-01-30T14:03:56;3.80;;;1.40;;
84958;SDS011;75256;48.062;11.662;2024-01-30T14:06:21;4.30;;;1.05;;
84958;SDS011;75256;48.062;11.662;2024-01-30T14:08:47;2.80;;;0.90;;
84958;SDS011;75256;48.062;11.662;2024-01-30T14:11:12;6.68;;;0.75;;
84958;SDS011;75256;48.062;11.662;2024-01-30T14:13:37;3.03;;;1.10;;
84958;SDS011;75256;48.062;11.662;2024-01-30T14:16:08;2.33;;;0.85;;
84958;SDS011;75256;48.062;11.662;2024-01-30T14:18:33;2.67;;;0.75;;
84958;SDS011;75256;48.062;11.662;2024-01-30T14:21:01;9.35;;;1.00;;
84958;SDS011;75256;48.062;11.662;2024-01-30T14:23:26;4.00;;;1.08;;
84958;SDS011;75256;48.062;11.662;2024-01-30T14:25:52;3.75;;;1.33;;
84958;SDS011;75256;48.062;11.662;2024-01-30T14:28:22;2.83;;;1.10;;
84958;SDS011;75256;48.062;11.662;2024-01-30T14:30:47;5.35;;;1.50;;
84958;SDS011;75256;48.062;11.662;2024-01-30T14:33:17;6.55;;;1.83;;
84958;SDS011;75256;48.062;11.662;2024-01-30T14:35:43;2.63;;;1.35;;